• Join FlightAware (Why Join?)
  • Login
  • US Flag 
10:32PM EDT


 

Airport Tracker/Info


-or-


 

Live Flight TrackerFlight Track Log ✈ FDX49 ✈ 13-Jul-2013 ✈ KMEM - RJAA / NRT

Flight Track Log - Related Links

Times and Time Zones

All times are in EDT time to prevent confusion due to time zone crossing. See the FDX49 flight status page for this flight to view local times or setup timezone preferences in your user account.

Time Position Orientation Groundspeed Altitude Reporting Facility
EDT Latitude Longitude Course Direction KTS MPH feet Rate Location/Type
08:41AM 35.0667 -90.0000 270° West 199 229 1,200  Level KMEM
08:42AM 35.0667 -90.0500 270° West 207 238 2,200 1,800 Climbing KMEM
08:43AM 35.0833 -90.1333 284° West 276 318 4,100 2,340 Climbing KMEM
08:44AM 35.1000 -90.2167 284° West 285 328 6,900 2,640 Climbing KMEM
08:45AM 35.1000 -90.3167 270° West 282 325 9,400 1,860 Climbing KMEM
08:46AM 35.1222 -90.4103 286° West 297 342 10,800 1,260 Climbing Memphis Center
08:47AM 35.1408 -90.5322 281° West 339 390 12,000 1,680 Climbing Memphis Center
08:48AM 35.1614 -90.6744 280° West 376 433 14,200 2,160 Climbing Memphis Center
08:49AM 35.1858 -90.8144 282° West 412 474 16,400 2,100 Climbing Memphis Center
08:50AM 35.2356 -90.9367 297° West 412 474 18,400 1,860 Climbing Memphis Center
08:51AM 35.2911 -91.0617 299° West 412 474 20,200 1,800 Climbing Memphis Center
08:52AM 35.3489 -91.1944 298° West 419 482 22,000 1,380 Climbing Memphis Center
08:58AM 35.7120 -92.0560 298° West 489 563 30,000 1,140 Climbing FlightAware
08:59AM 35.7530 -92.1550 297° West 491 565 30,000  Level FlightAware
08:59AM 35.7990 -92.2650 297° West 490 564 30,000  Level FlightAware
09:00AM 35.8390 -92.3630 297° West 490 564 30,000  Level FlightAware
09:01AM 35.8730 -92.4430 298° West 491 565 30,000  Level FlightAware
09:01AM 35.9200 -92.5580 297° West 491 565 30,000  Level FlightAware
09:02AM 35.9650 -92.6680 297° West 490 564 30,000  Level FlightAware
09:03AM 36.0010 -92.7550 297° West 490 564 30,000  Level FlightAware
09:03AM 36.0430 -92.8590 297° West 488 562 30,000  Level FlightAware
09:04AM 36.0870 -92.9680 297° West 488 562 30,000  Level FlightAware
09:05AM 36.1200 -93.0470 297° West 489 563 30,000  Level FlightAware
09:05AM 36.1650 -93.1600 296° West 489 563 30,000  Level FlightAware
09:06AM 36.2050 -93.2580 297° West 490 564 30,000  Level FlightAware
09:07AM 36.2460 -93.3600 297° West 491 565 30,000  Level FlightAware
09:07AM 36.2900 -93.4700 296° West 491 565 30,000  Level FlightAware
09:08AM 36.3320 -93.5760 296° West 491 565 30,000  Level FlightAware
09:09AM 36.3760 -93.6870 296° West 491 565 30,000  Level FlightAware
09:10AM 36.4140 -93.7830 296° West 492 566 30,000  Level FlightAware
09:10AM 36.4510 -93.8760 296° West 493 567 30,000  Level FlightAware
09:11AM 36.4930 -93.9790 297° West 491 565 30,000  Level FlightAware
09:12AM 36.5610 -94.1200 301° West 488 562 30,000  Level FlightAware
09:12AM 36.6100 -94.2150 303° West 489 563 30,000 600 Level FlightAware
09:13AM 36.6620 -94.3160 303° West 490 564 30,900 1,320 Climbing FlightAware
09:14AM 36.7150 -94.4190 303° West 487 560 31,900 780 Climbing FlightAware
09:14AM 36.7580 -94.5050 302° West 483 556 32,000 60 Climbing FlightAware
09:15AM 36.8090 -94.6050 303° West 485 558 32,000  Level FlightAware
09:16AM 36.8560 -94.6980 302° West 486 559 32,000  Level FlightAware
09:17AM 36.9050 -94.7950 302° West 486 559 32,000  Level FlightAware
09:17AM 36.9520 -94.8890 302° West 489 563 32,000  Level FlightAware
09:18AM 37.0000 -94.9860 302° West 490 564 32,000  Level FlightAware
09:19AM 37.0490 -95.0830 302° West 491 565 32,000  Level FlightAware
09:19AM 37.1010 -95.1870 302° West 492 566 32,000  Level FlightAware
09:20AM 37.1500 -95.2860 302° West 493 567 32,000  Level FlightAware
09:21AM 37.2010 -95.3890 302° West 491 565 32,000  Level FlightAware
09:21AM 37.2510 -95.4900 302° West 492 566 32,000  Level FlightAware
09:22AM 37.2940 -95.5780 302° West 491 565 32,000  Level FlightAware
09:23AM 37.3440 -95.6790 302° West 492 566 32,000  Level FlightAware
09:23AM 37.3950 -95.7840 301° West 493 567 32,000  Level FlightAware
09:24AM 37.4370 -95.8700 302° West 493 567 32,000  Level FlightAware
09:25AM 37.4850 -95.9700 301° West 492 566 32,000  Level FlightAware
09:25AM 37.5330 -96.0660 302° West 491 565 32,000  Level FlightAware
09:26AM 37.5790 -96.1530 304° West 492 566 32,000  Level FlightAware
09:27AM 37.6330 -96.2590 303° West 494 568 32,000  Level FlightAware
09:27AM 37.6820 -96.3550 303° West 495 570 32,000  Level FlightAware
09:28AM 37.7390 -96.4670 303° West 495 570 32,000  Level FlightAware
09:29AM 37.7890 -96.5660 303° West 495 570 32,000  Level FlightAware
09:29AM 37.8430 -96.6730 303° West 495 570 32,000  Level FlightAware
09:30AM 37.8930 -96.7710 303° West 496 571 32,000  Level FlightAware
09:31AM 37.9320 -96.8500 302° West 496 571 32,000  Level FlightAware
09:31AM 37.9860 -96.9580 302° West 497 572 32,000  Level FlightAware
09:32AM 38.0410 -97.0670 303° West 497 572 32,000  Level FlightAware
09:33AM 38.0910 -97.1680 302° West 499 574 32,000  Level FlightAware
09:34AM 38.1450 -97.2760 302° West 501 577 32,000  Level FlightAware
09:34AM 38.1920 -97.3700 302° West 500 575 32,000  Level FlightAware
09:35AM 38.2430 -97.4750 302° West 499 574 32,000  Level FlightAware
09:36AM 38.2920 -97.5740 302° West 499 574 32,000  Level FlightAware
09:36AM 38.3390 -97.6700 302° West 498 573 32,000  Level FlightAware
09:37AM 38.3920 -97.7770 302° West 498 573 32,000  Level FlightAware
09:37AM 38.4360 -97.8690 301° West 496 571 32,000  Level FlightAware
09:38AM 38.4850 -97.9670 303° West 495 570 32,000  Level FlightAware
09:39AM 38.5440 -98.0640 308° West 495 570 32,000  Level FlightAware
09:40AM 38.6050 -98.1510 312° West 494 568 32,000  Level FlightAware
09:40AM 38.6720 -98.2460 312° West 495 570 32,000  Level FlightAware
09:41AM 38.7340 -98.3360 311° West 495 570 32,000  Level FlightAware
09:42AM 38.8020 -98.4340 312° West 495 570 32,000  Level FlightAware
09:42AM 38.8540 -98.5090 312° West 495 570 32,000  Level FlightAware
09:43AM 38.9040 -98.5830 311° West 495 570 32,000  Level FlightAware
09:44AM 38.9500 -98.6510 311° West 495 570 32,000  Level FlightAware
09:44AM 39.0150 -98.7470 311° West 495 570 32,000  Level FlightAware
09:45AM 39.0650 -98.8210 311° West 495 570 32,000  Level FlightAware
09:46AM 39.1260 -98.9120 311° West 495 570 32,000  Level FlightAware
09:46AM 39.1720 -98.9800 311° West 495 570 32,000  Level FlightAware
09:47AM 39.2340 -99.0730 311° West 495 570 32,000  Level FlightAware
09:48AM 39.2820 -99.1430 312° West 495 570 32,000  Level FlightAware
09:48AM 39.3290 -99.2140 311° West 495 570 32,000  Level FlightAware
09:49AM 39.3750 -99.2820 311° West 495 570 32,000  Level FlightAware
09:50AM 39.4370 -99.3750 311° West 495 570 32,000  Level FlightAware
09:50AM 39.4830 -99.4440 311° West 495 570 32,000  Level FlightAware
09:51AM 39.5270 -99.5080 312° West 495 570 32,000  Level FlightAware
09:52AM 39.5880 -99.6000 311° West 495 570 32,000  Level FlightAware
09:53AM 39.8069 -99.9256 311° West 498 573 32,000  Level Denver Center
09:54AM 39.8989 -100.0622 311° West 501 577 32,000  Level Denver Center
09:55AM 40.0158 -100.1625 327° Northwest 505 581 32,000  Level Denver Center
09:56AM 40.1406 -100.2456 333° Northwest 498 573 32,000  Level Denver Center
09:57AM 40.2789 -100.3381 333° Northwest 500 575 32,000  Level Denver Center
09:58AM 40.3967 -100.4175 333° Northwest 498 573 32,000  Level Denver Center
09:59AM 40.5144 -100.4978 333° Northwest 497 572 32,000  Level Denver Center
10:00AM 40.6508 -100.5900 333° Northwest 496 571 32,000  Level Denver Center
10:01AM 40.7667 -100.6686 333° Northwest 491 565 32,000  Level Denver Center
10:02AM 40.9047 -100.7661 332° Northwest 504 580 32,000  Level Denver Center
10:03AM 41.0161 -100.8447 332° Northwest 504 580 32,000  Level Denver Center
10:04AM 41.1519 -100.9394 332° Northwest 496 571 32,000  Level Denver Center
10:05AM 41.2692 -101.0217 332° Northwest 497 572 32,000  Level Denver Center
10:06AM 41.4067 -101.1186 332° Northwest 501 577 32,000  Level Denver Center
10:07AM 41.5247 -101.2028 332° Northwest 502 578 32,000  Level Denver Center
10:08AM 41.6433 -101.2875 332° Northwest 504 580 32,000  Level Denver Center
10:09AM 41.7828 -101.3861 332° Northwest 506 582 32,000  Level Denver Center
10:10AM 41.9006 -101.4708 332° Northwest 504 580 32,000  Level Denver Center
10:11AM 42.0381 -101.5683 332° Northwest 502 578 32,000  Level Denver Center
10:13AM 42.1731 -101.6681 331° Northwest 497 572 32,000  Level Denver Center
10:14AM 42.3106 -101.7644 333° Northwest 497 572 32,000  Level Denver Center
10:15AM 42.4250 -101.8489 331° Northwest 495 570 32,000  Level Denver Center
10:16AM 42.5792 -101.9650 331° Northwest 496 571 32,000  Level Denver Center
10:17AM 42.6958 -102.0511 332° Northwest 497 572 32,000  Level Denver Center
10:18AM 42.8144 -102.1378 332° Northwest 505 581 32,000  Level Denver Center
10:19AM 42.9511 -102.2397 331° Northwest 502 578 32,000  Level Denver Center
10:20AM 43.0878 -102.3428 331° Northwest 503 579 32,000  Level Denver Center
10:21AM 43.2042 -102.4311 331° Northwest 501 577 32,000  Level Denver Center
10:22AM 43.3419 -102.5339 332° Northwest 502 578 32,000  Level Denver Center
10:23AM 43.4778 -102.6386 331° Northwest 503 579 32,000  Level Denver Center
10:24AM 43.6139 -102.7428 331° Northwest 502 578 32,000  Level Denver Center
10:25AM 43.7300 -102.8306 331° Northwest 499 574 32,000  Level Denver Center
10:26AM 43.8672 -102.9386 330° Northwest 503 579 32,000  Level Denver Center
10:27AM 43.9839 -103.0278 331° Northwest 504 580 32,000  Level Denver Center
10:28AM 44.1189 -103.1333 331° Northwest 501 577 32,000  Level Denver Center
10:29AM 44.2342 -103.2225 331° Northwest 497 572 32,000  Level Denver Center
10:30AM 44.3667 -103.3275 330° Northwest 493 567 32,000  Level Denver Center
10:31AM 44.4889 -103.4247 330° Northwest 497 572 32,000  Level Denver Center
10:33AM 44.6072 -103.5200 330° Northwest 491 565 32,000  Level Denver Center
10:34AM 44.7283 -103.6161 331° Northwest 493 567 32,000  Level Denver Center
10:35AM 44.8622 -103.7222 331° Northwest 494 568 32,000  Level Denver Center
10:36AM 44.9775 -103.8156 330° Northwest 498 573 32,000  Level Denver Center
10:37AM 45.1106 -103.9236 330° Northwest 495 570 32,000  Level Denver Center
10:38AM 45.1961 -103.9919 331° Northwest 495 570 32,000  Level Salt Lake Center
10:39AM 45.3150 -104.0878 330° Northwest 493 567 32,000  Level Salt Lake Center
10:40AM 45.4567 -104.2047 330° Northwest 490 564 32,000  Level Salt Lake Center
10:41AM 45.5742 -104.3028 330° Northwest 489 563 32,000  Level Salt Lake Center
10:42AM 45.6919 -104.3994 330° Northwest 488 562 32,000  Level Salt Lake Center
10:43AM 45.8028 -104.4922 330° Northwest 493 567 32,000  Level Salt Lake Center
10:44AM 45.9408 -104.6097 329° Northwest 485 558 32,000  Level Salt Lake Center
10:45AM 46.0592 -104.7097 330° Northwest 490 564 32,000  Level Salt Lake Center
10:46AM 46.1764 -104.8092 330° Northwest 492 566 32,000  Level Salt Lake Center
10:47AM 46.2931 -104.9075 330° Northwest 489 563 32,000  Level Salt Lake Center
10:48AM 46.4117 -105.0097 329° Northwest 493 567 32,000  Level Salt Lake Center
10:49AM 46.5300 -105.1119 329° Northwest 496 571 32,000  Level Salt Lake Center
10:50AM 46.6594 -105.2236 329° Northwest 496 571 32,000  Level Salt Lake Center
10:51AM 46.7794 -105.3297 329° Northwest 500 575 32,000  Level Salt Lake Center
10:52AM 46.8997 -105.4350 329° Northwest 503 579 32,000  Level Salt Lake Center
10:53AM 47.0183 -105.5408 329° Northwest 500 575 32,000  Level Salt Lake Center
10:54AM 47.1603 -105.6661 329° Northwest 498 573 32,000  Level Salt Lake Center
10:55AM 47.2783 -105.7728 329° Northwest 497 572 32,000  Level Salt Lake Center
10:56AM 47.3969 -105.8786 329° Northwest 498 573 32,000  Level Salt Lake Center
10:57AM 47.5142 -105.9833 329° Northwest 494 568 32,000  Level Salt Lake Center
10:58AM 47.6306 -106.0892 329° Northwest 492 566 32,000  Level Salt Lake Center
10:59AM 47.7472 -106.1953 329° Northwest 491 565 32,000  Level Salt Lake Center
11:00AM 47.8861 -106.3222 329° Northwest 488 562 32,000  Level Salt Lake Center
11:01AM 48.0025 -106.4289 328° Northwest 490 564 32,000  Level Salt Lake Center
11:02AM 48.1192 -106.5356 329° Northwest 491 565 32,000  Level Salt Lake Center
11:03AM 48.2344 -106.6389 329° Northwest 487 560 32,000  Level Salt Lake Center
11:04AM 48.3686 -106.7022 343° North 501 577 32,000  Level Salt Lake Center
11:05AM 48.5019 -106.7683 342° North 502 578 32,000  Level Salt Lake Center
11:06AM 48.6631 -106.8469 342° North 507 583 32,000  Level Salt Lake Center
11:07AM 48.7950 -106.9125 342° North 504 580 32,000  Level Salt Lake Center
11:09AM 48.9333 -107.0167 334° Northwest 500 575 32,000  Level Winnipeg Center
11:10AM 49.0667 -107.0667 346° North 500 575 32,000  Level Winnipeg Center
11:11AM 49.1833 -107.1500 335° Northwest 500 575 32,000  Level Winnipeg Center
11:12AM 49.3167 -107.2167 342° North 500 575 32,000  Level Winnipeg Center
11:13AM 49.4667 -107.2833 344° North 500 575 32,000  Level Winnipeg Center
11:18AM 50.1640 -107.6200 344° North 32,000  Level FlightAware
11:19AM 50.2350 -107.6580 341° North 500 575 32,000  Level FlightAware
11:20AM 50.3200 -107.7130 338° Northwest 491 565 32,000  Level FlightAware
11:20AM 50.3910 -107.7760 331° Northwest 484 557 32,000  Level FlightAware
11:21AM 50.4920 -107.8680 330° Northwest 480 552 32,000  Level FlightAware
11:22AM 50.6330 -107.9980 330° Northwest 480 552 32,000  Level FlightAware
11:23AM 50.7100 -108.0720 329° Northwest 480 552 32,000  Level FlightAware
11:24AM 50.7750 -108.1330 329° Northwest 480 552 32,000  Level FlightAware
11:24AM 50.8350 -108.1900 329° Northwest 480 552 32,000  Level FlightAware
11:25AM 50.9130 -108.2640 329° Northwest 480 552 32,000  Level FlightAware
11:26AM 50.9710 -108.3200 329° Northwest 480 552 32,000  Level FlightAware
11:27AM 51.0490 -108.3940 329° Northwest 480 552 32,000  Level FlightAware
11:27AM 51.1070 -108.4500 329° Northwest 480 552 32,000  Level FlightAware
11:28AM 51.1840 -108.5240 329° Northwest 480 552 32,000  Level FlightAware
11:29AM 51.2430 -108.5800 329° Northwest 480 552 32,000  Level FlightAware
11:29AM 51.3200 -108.6540 329° Northwest 480 552 32,000  Level FlightAware
11:30AM 51.3790 -108.7110 329° Northwest 480 552 32,000  Level FlightAware
11:31AM 51.4380 -108.7680 329° Northwest 480 552 32,000  Level FlightAware
11:31AM 51.5160 -108.8430 329° Northwest 480 552 32,000  Level FlightAware
11:32AM 51.7833 -109.1167 329° Northwest 490 564 32,000  Level Edmonton Center
11:33AM 51.9000 -109.2333 328° Northwest 480 552 32,000  Level Edmonton Center
11:34AM 52.0167 -109.3500 328° Northwest 480 552 32,000  Level Edmonton Center
11:35AM 52.1000 -109.4667 319° Northwest 490 564 32,000  Level Winnipeg Center
11:36AM 52.2167 -109.5833 329° Northwest 490 564 32,000  Level Winnipeg Center
11:37AM 52.3333 -109.7000 329° Northwest 500 575 32,000  Level Winnipeg Center
11:38AM 52.4500 -109.8167 329° Northwest 490 564 32,000  Level Winnipeg Center
11:39AM 52.5667 -109.9333 329° Northwest 500 575 32,000  Level Winnipeg Center
11:40AM 52.6833 -110.0500 329° Northwest 490 564 32,000  Level Winnipeg Center
11:41AM 52.8000 -110.2000 322° Northwest 490 564 32,000  Level Winnipeg Center
11:42AM 52.9000 -110.3167 325° Northwest 490 564 32,000  Level Winnipeg Center
11:43AM 53.0000 -110.4500 321° Northwest 490 564 32,000  Level Winnipeg Center
11:44AM 53.1167 -110.6000 322° Northwest 490 564 32,000  Level Winnipeg Center
11:50AM 53.7520 -111.4000 322° Northwest 481 554 32,000  Level FlightAware
11:50AM 53.8210 -111.4980 320° Northwest 480 552 32,000  Level FlightAware
11:51AM 53.8910 -111.5970 320° Northwest 480 552 32,000  Level FlightAware
11:52AM 53.9430 -111.6710 320° Northwest 480 552 32,000  Level FlightAware
11:52AM 53.9950 -111.7450 320° Northwest 480 552 32,000  Level FlightAware
11:53AM 54.0630 -111.8420 320° Northwest 480 552 32,000  Level FlightAware
11:54AM 54.1160 -111.9190 320° Northwest 480 552 32,000  Level FlightAware
11:55AM 54.1870 -112.0200 320° Northwest 480 552 32,000  Level FlightAware
11:55AM 54.2360 -112.0910 320° Northwest 480 552 32,000  Level FlightAware
11:56AM 54.3060 -112.1900 320° Northwest 480 552 32,000  Level FlightAware
11:56AM 54.3580 -112.2650 320° Northwest 480 552 32,000  Level FlightAware
11:57AM 54.4280 -112.3680 319° Northwest 480 552 32,000  Level FlightAware
11:58AM 54.4820 -112.4450 320° Northwest 480 552 32,000  Level FlightAware
11:59AM 54.5510 -112.5450 320° Northwest 480 552 32,000  Level FlightAware
11:59AM 54.6030 -112.6210 320° Northwest 480 552 32,000  Level FlightAware
12:00PM 54.7500 -112.9000 320° Northwest 450 518 32,000  Level Edmonton Center
12:01PM 54.8500 -113.0333 323° Northwest 450 518 32,000  Level Edmonton Center
12:02PM 54.9667 -113.1833 324° Northwest 450 518 32,000  Level Edmonton Center
12:03PM 55.0500 -113.3500 311° West 460 529 32,000  Level Edmonton Center
12:04PM 55.1500 -113.4833 323° Northwest 450 518 32,000  Level Edmonton Center
12:05PM 55.2500 -113.6333 319° Northwest 460 529 32,000  Level Edmonton Center
12:06PM 55.3500 -113.7667 323° Northwest 450 518 32,000  Level Edmonton Center
12:07PM 55.4333 -113.9167 314° West 450 518 32,000  Level Edmonton Center
12:08PM 55.5500 -114.0667 324° Northwest 450 518 32,000  Level Edmonton Center
12:09PM 55.6333 -114.2000 318° Northwest 460 529 32,000  Level Edmonton Center
12:10PM 55.7500 -114.3500 324° Northwest 460 529 32,000  Level Edmonton Center
12:11PM 55.8333 -114.5000 315° West 460 529 32,000  Level Edmonton Center
12:12PM 55.9333 -114.6667 317° Northwest 460 529 32,000  Level Edmonton Center
12:13PM 56.0333 -114.8167 320° Northwest 460 529 32,000  Level Edmonton Center
12:14PM 56.1333 -114.9667 320° Northwest 460 529 32,000  Level Edmonton Center
12:15PM 56.2500 -115.1167 324° Northwest 470 541 32,000  Level Edmonton Center
12:16PM 56.3333 -115.2667 315° West 470 541 32,000  Level Edmonton Center
12:17PM 56.4333 -115.4167 320° Northwest 470 541 32,000  Level Edmonton Center
12:18PM 56.5333 -115.5667 320° Northwest 480 552 32,000  Level Edmonton Center
12:19PM 56.6333 -115.7500 315° West 470 541 32,000  Level Edmonton Center
12:20PM 56.7333 -115.9167 318° Northwest 480 552 32,000  Level Edmonton Center
12:21PM 56.8500 -116.0667 325° Northwest 470 541 32,000  Level Edmonton Center
12:22PM 56.9333 -116.2500 310° West 480 552 32,000  Level Edmonton Center
12:23PM 57.0333 -116.4167 318° Northwest 490 564 32,000  Level Edmonton Center
12:24PM 57.1500 -116.5667 325° Northwest 480 552 32,000  Level Edmonton Center
12:25PM 57.2333 -116.7333 313° West 470 541 32,000  Level Edmonton Center
12:26PM 57.3500 -116.9333 317° Northwest 490 564 32,000  Level Edmonton Center
12:27PM 57.4333 -117.0833 316° Northwest 490 564 32,000  Level Edmonton Center
12:28PM 57.5333 -117.2833 313° West 490 564 32,000  Level Edmonton Center
12:29PM 57.6500 -117.4500 323° Northwest 480 552 32,000  Level Edmonton Center
12:30PM 57.7500 -117.6333 316° Northwest 490 564 32,000  Level Edmonton Center
12:31PM 57.8500 -117.8000 318° Northwest 490 564 32,000  Level Edmonton Center
12:32PM 57.9500 -117.9667 319° Northwest 500 575 32,000  Level Edmonton Center
12:33PM 58.0500 -118.1667 313° West 500 575 32,000  Level Edmonton Center
12:34PM 58.1500 -118.3500 316° Northwest 490 564 32,000  Level Edmonton Center
12:35PM 58.2500 -118.5500 314° West 520 598 32,000  Level Edmonton Center
12:36PM 58.3500 -118.7167 319° Northwest 510 587 32,000  Level Edmonton Center
12:37PM 58.4667 -118.9333 316° Northwest 500 575 32,000  Level Edmonton Center
12:38PM 58.5667 -119.1000 319° Northwest 500 575 32,000  Level Edmonton Center
12:39PM 58.6667 -119.3167 312° West 510 587 32,000  Level Edmonton Center
12:40PM 58.7667 -119.4833 319° Northwest 510 587 32,000  Level Edmonton Center
12:42PM 58.9225 -119.7501 319° Northwest  Level FlightAware Approximate
12:49PM 59.5557 -121.1326 311° West  Level FlightAware Approximate
12:50PM 59.6423 -121.3391 310° West  Level FlightAware Approximate
12:51PM 59.7286 -121.5466 310° West  Level FlightAware Approximate
12:52PM 59.8146 -121.7552 309° West  Level FlightAware Approximate
12:53PM 59.9002 -121.9649 309° West  Level FlightAware Approximate
12:54PM 59.9855 -122.1757 309° West  Level FlightAware Approximate
12:55PM 60.0705 -122.3876 309° West  Level FlightAware Approximate
12:56PM 60.1551 -122.6006 309° West  Level FlightAware Approximate
12:57PM 60.2394 -122.8146 308° West  Level FlightAware Approximate
12:58PM 60.3233 -123.0298 308° West  Level FlightAware Approximate
12:59PM 60.4069 -123.2461 308° West  Level FlightAware Approximate
01:00PM 60.4901 -123.4634 308° West  Level FlightAware Approximate
01:01PM 60.5730 -123.6819 308° West  Level FlightAware Approximate
01:02PM 60.6555 -123.9016 308° West  Level FlightAware Approximate
01:03PM 60.7377 -124.1223 307° West  Level FlightAware Approximate
01:04PM 60.8195 -124.3442 307° West  Level FlightAware Approximate
01:05PM 60.9009 -124.5672 307° West  Level FlightAware Approximate
01:06PM 60.9819 -124.7913 307° West  Level FlightAware Approximate
01:07PM 61.0626 -125.0166 307° West  Level FlightAware Approximate
01:08PM 61.1429 -125.2431 306° West  Level FlightAware Approximate
01:09PM 61.2228 -125.4706 306° West  Level FlightAware Approximate
01:10PM 61.2780 -125.7248 294° West  Level FlightAware Approximate
01:11PM 61.3360 -125.9908 307° West  Level FlightAware Approximate
01:12PM 61.4158 -126.2157 307° West  Level FlightAware Approximate
01:13PM 61.4953 -126.4418 306° West  Level FlightAware Approximate
01:14PM 61.5743 -126.6690 306° West  Level FlightAware Approximate
01:15PM 61.6530 -126.8974 306° West  Level FlightAware Approximate
01:16PM 61.7313 -127.1269 306° West  Level FlightAware Approximate
01:17PM 61.8092 -127.3576 306° West  Level FlightAware Approximate
01:18PM 61.8867 -127.5895 305° West  Level FlightAware Approximate
01:19PM 61.9639 -127.8226 305° West  Level FlightAware Approximate
01:20PM 62.0406 -128.0568 305° West  Level FlightAware Approximate
01:21PM 62.1170 -128.2922 305° West  Level FlightAware Approximate
01:22PM 62.1929 -128.5288 305° West  Level FlightAware Approximate
01:23PM 62.2685 -128.7666 304° West  Level FlightAware Approximate
01:24PM 62.3438 -129.0053 304° West  Level FlightAware Approximate
01:25PM 62.4188 -129.2450 304° West  Level FlightAware Approximate
01:26PM 62.4934 -129.4859 304° West  Level FlightAware Approximate
01:27PM 62.5676 -129.7281 304° West  Level FlightAware Approximate
01:28PM 62.6414 -129.9714 303° West  Level FlightAware Approximate
01:29PM 62.7022 -130.2314 296° West  Level FlightAware Approximate
01:30PM 62.7609 -130.4946 296° West  Level FlightAware Approximate
01:31PM 62.8191 -130.7588 296° West  Level FlightAware Approximate
01:32PM 62.8768 -131.0240 296° West  Level FlightAware Approximate
01:33PM 62.9340 -131.2903 295° West  Level FlightAware Approximate
01:34PM 62.9906 -131.5576 295° West  Level FlightAware Approximate
01:35PM 63.0468 -131.8260 295° West  Level FlightAware Approximate
01:36PM 63.1025 -132.0954 295° West  Level FlightAware Approximate
01:37PM 63.1576 -132.3658 294° West  Level FlightAware Approximate
01:38PM 63.2123 -132.6372 294° West  Level FlightAware Approximate
01:39PM 63.2664 -132.9097 294° West  Level FlightAware Approximate
01:40PM 63.3200 -133.1832 294° West  Level FlightAware Approximate
01:41PM 63.3731 -133.4577 293° West  Level FlightAware Approximate
01:42PM 63.4256 -133.7332 293° West  Level FlightAware Approximate
01:43PM 63.4776 -134.0097 293° West  Level FlightAware Approximate
01:44PM 63.5291 -134.2872 293° West  Level FlightAware Approximate
01:45PM 63.5801 -134.5657 292° West  Level FlightAware Approximate
01:46PM 63.6305 -134.8452 292° West  Level FlightAware Approximate
01:47PM 63.6803 -135.1257 292° West  Level FlightAware Approximate
01:48PM 63.7296 -135.4072 292° West  Level FlightAware Approximate
01:49PM 63.7784 -135.6897 291° West  Level FlightAware Approximate
01:50PM 63.8265 -135.9731 291° West  Level FlightAware Approximate
01:51PM 63.8742 -136.2575 291° West  Level FlightAware Approximate
01:52PM 63.9213 -136.5429 291° West  Level FlightAware Approximate
01:53PM 63.9678 -136.8292 290° West  Level FlightAware Approximate
01:54PM 64.0137 -137.1165 290° West  Level FlightAware Approximate
01:55PM 64.0591 -137.4046 290° West  Level FlightAware Approximate
01:56PM 64.1039 -137.6938 290° West  Level FlightAware Approximate
01:57PM 64.1482 -137.9838 289° West  Level FlightAware Approximate
01:58PM 64.1918 -138.2748 289° West  Level FlightAware Approximate
01:58PM 64.3500 -139.2833 288° West 490 564 34,000  Level Anchorage Center
01:59PM 64.2349 -138.5667 289° West  Level FlightAware Approximate
01:59PM 64.4000 -139.6000 290° West 490 564 34,000  Level Anchorage Center
02:00PM 64.2774 -138.8595 289° West  Level FlightAware Approximate
02:00PM 64.4333 -139.9167 284° West 500 575 34,000  Level Anchorage Center
02:01PM 64.3193 -139.1532 288° West  Level FlightAware Approximate
02:01PM 64.4833 -140.2000 292° West 480 552 34,000  Level Anchorage Center
02:02PM 64.3606 -139.4478 288° West  Level FlightAware Approximate
02:02PM 64.5167 -140.5167 284° West 510 587 34,000  Level Anchorage Center
02:03PM 64.4014 -139.7432 288° West  Level FlightAware Approximate
02:03PM 64.5500 -140.8000 285° West 500 575 34,000  Level Anchorage Center
02:04PM 64.4415 -140.0396 288° West  Level FlightAware Approximate
02:04PM 64.5833 -141.1167 284° West 480 552 34,000  Level Anchorage Center
02:05PM 64.5833 -141.4333 270° West 490 564 34,000  Level Anchorage Center
02:06PM 64.6000 -141.7500 277° West 500 575 34,000  Level Anchorage Center
02:07PM 64.6000 -142.0833 270° West 510 587 34,000  Level Anchorage Center
02:08PM 64.6167 -142.4000 277° West 490 564 34,000  Level Anchorage Center
02:09PM 64.6167 -142.7333 270° West 500 575 34,000  Level Anchorage Center
02:10PM 64.6167 -143.0500 270° West 490 564 34,000  Level Anchorage Center
02:11PM 64.6167 -143.3833 270° West 500 575 34,000  Level Anchorage Center
02:12PM 64.6333 -143.7000 277° West 500 575 34,000  Level Anchorage Center
02:13PM 64.6333 -144.0500 270° West 480 552 34,000  Level Anchorage Center
02:14PM 64.6333 -144.3500 270° West 490 564 34,000  Level Anchorage Center
02:15PM 64.6333 -144.6833 270° West 490 564 34,000  Level Anchorage Center
02:16PM 64.6333 -145.0000 270° West 490 564 34,000  Level Anchorage Center
02:17PM 64.6333 -145.3333 270° West 490 564 34,000  Level Anchorage Center
02:18PM 64.6333 -145.6500 270° West 490 564 34,000  Level Anchorage Center
02:19PM 64.6333 -145.9833 270° West 490 564 34,000  Level Anchorage Center
02:20PM 64.6333 -146.2833 270° West 490 564 34,000  Level Anchorage Center
02:21PM 64.6333 -146.6167 270° West 490 564 34,000  Level Anchorage Center
02:22PM 64.6167 -146.9333 263° West 500 575 34,000  Level Anchorage Center
02:23PM 64.6167 -147.2667 270° West 490 564 34,000  Level Anchorage Center
02:24PM 64.6167 -147.5667 270° West 500 575 34,000  Level Anchorage Center
02:26PM 64.6000 -147.8833 263° West 500 575 34,000  Level Anchorage Center
02:27PM 64.6000 -148.2333 270° West 500 575 34,000  Level Anchorage Center
02:28PM 64.6000 -148.5167 270° West 490 564 34,000  Level Anchorage Center
02:29PM 64.5833 -148.8333 263° West 490 564 34,000  Level Anchorage Center
02:30PM 64.5833 -149.1667 270° West 500 575 34,000  Level Anchorage Center
02:31PM 64.6000 -149.4833 277° West 500 575 34,000  Level Anchorage Center
02:32PM 64.6167 -149.8167 277° West 490 564 34,000  Level Anchorage Center
02:33PM 64.6333 -150.1333 277° West 500 575 34,000  Level Anchorage Center
02:34PM 64.6333 -150.4500 270° West 490 564 34,000  Level Anchorage Center
02:35PM 64.6500 -150.7667 277° West 490 564 34,000  Level Anchorage Center
02:36PM 64.6667 -151.1000 277° West 500 575 34,000  Level Anchorage Center
02:37PM 64.6667 -151.4167 270° West 500 575 34,000  Level Anchorage Center
02:38PM 64.6833 -151.7333 277° West 490 564 34,000  Level Anchorage Center
02:39PM 64.6833 -152.0667 270° West 500 575 34,000  Level Anchorage Center
02:40PM 64.7000 -152.3667 278° West 480 552 34,000  Level Anchorage Center
02:41PM 64.7000 -152.6833 270° West 490 564 34,000  Level Anchorage Center
02:42PM 64.7000 -153.0167 270° West 500 575 34,000  Level Anchorage Center
02:43PM 64.7167 -153.3333 277° West 500 575 34,000  Level Anchorage Center
02:44PM 64.7167 -153.6667 270° West 500 575 34,000  Level Anchorage Center
02:45PM 64.7167 -153.9833 270° West 490 564 34,000  Level Anchorage Center
02:46PM 64.7167 -154.3167 270° West 500 575 34,000  Level Anchorage Center
02:47PM 64.7333 -154.6333 277° West 500 575 34,000  Level Anchorage Center
02:48PM 64.7333 -154.9500 270° West 490 564 34,000  Level Anchorage Center
02:49PM 64.7333 -155.2833 270° West 500 575 34,000  Level Anchorage Center
02:50PM 64.7333 -155.6167 270° West 500 575 34,000  Level Anchorage Center
02:51PM 64.7333 -155.9167 270° West 480 552 34,000  Level Anchorage Center
02:52PM 64.7333 -156.2500 270° West 490 564 34,000  Level Anchorage Center
02:53PM 64.7333 -156.5667 270° West 500 575 34,000  Level Anchorage Center
02:54PM 64.7333 -156.9000 270° West 490 564 34,000  Level Anchorage Center
02:55PM 64.7333 -157.2667 270° West 480 552 34,000  Level Anchorage Center
02:56PM 64.7333 -157.5833 270° West 480 552 34,000  Level Anchorage Center
02:57PM 64.7333 -157.9000 270° West 490 564 34,000  Level Anchorage Center
02:58PM 64.7333 -158.2333 270° West 490 564 34,000  Level Anchorage Center
02:59PM 64.7167 -158.5500 263° West 500 575 34,000  Level Anchorage Center
03:00PM 64.7167 -158.8833 270° West 500 575 34,000  Level Anchorage Center
03:01PM 64.7167 -159.2000 270° West 490 564 34,000  Level Anchorage Center
03:02PM 64.7000 -159.5167 263° West 490 564 34,000  Level Anchorage Center
03:03PM 64.7000 -159.8500 270° West 500 575 34,000  Level Anchorage Center
03:04PM 64.7000 -160.1667 270° West 500 575 34,000  Level Anchorage Center
03:05PM 64.6833 -160.5000 263° West 500 575 34,000  Level Anchorage Center
03:06PM 64.6833 -160.8167 270° West 490 564 34,000  Level Anchorage Center
03:07PM 64.6667 -161.1500 263° West 490 564 34,000  Level Anchorage Center
03:08PM 64.6500 -161.4667 263° West 500 575 34,000  Level Anchorage Center
03:09PM 64.6500 -161.8000 270° West 500 575 34,000  Level Anchorage Center
03:10PM 64.6333 -162.1167 263° West 490 564 34,000  Level Anchorage Center
03:11PM 64.6167 -162.4500 263° West 500 575 34,000  Level Anchorage Center
03:12PM 64.6167 -162.7667 270° West 490 564 34,000  Level Anchorage Center
03:13PM 64.6000 -163.0833 263° West 490 564 34,000  Level Anchorage Center
03:14PM 64.5833 -163.4000 263° West 490 564 34,000  Level Anchorage Center
03:15PM 64.5667 -163.7167 263° West 490 564 34,000  Level Anchorage Center
03:16PM 64.5500 -164.0333 263° West 490 564 34,000  Level Anchorage Center
03:17PM 64.5333 -164.3500 263° West 490 564 34,000  Level Anchorage Center
03:18PM 64.5167 -164.6667 263° West 480 552 34,000  Level Anchorage Center
03:19PM 64.5000 -164.9667 263° West 470 541 34,000  Level Anchorage Center
03:20PM 64.4833 -165.2667 263° West 460 529 34,000  Level Anchorage Center
03:21PM 64.4833 -165.5500 270° West 460 529 34,000  Level Anchorage Center
03:22PM 64.4833 -165.8667 270° West 460 529 34,000  Level Anchorage Center
03:23PM 64.4833 -166.1667 270° West 470 541 34,000  Level Anchorage Center
03:24PM 64.4833 -166.4667 270° West 470 541 34,000  Level Anchorage Center
03:25PM 64.4833 -166.7833 270° West 470 541 34,000  Level Anchorage Center
03:26PM 64.4833 -167.0833 270° West 480 552 34,000  Level Anchorage Center
03:27PM 64.4667 -167.4000 263° West 480 552 34,000  Level Anchorage Center
03:28PM 64.4667 -167.7000 270° West 460 529 34,000  Level Anchorage Center
03:29PM 64.4667 -168.0000 270° West 470 541 34,000 240 Level Anchorage Center
03:30PM 64.4500 -168.3167 263° West 470 541 34,600 960 Climbing Anchorage Center
03:31PM 64.4500 -168.6167 270° West 460 529 36,000 660 Climbing Anchorage Center
03:32PM 64.4500 -168.9167 270° West 460 529 36,000  Level Anchorage Center
03:33PM 64.4333 -169.2000 262° West 460 529 36,000  Level Anchorage Center
03:34PM 64.4333 -169.5000 270° West 460 529 36,000  Level Anchorage Center
03:35PM 64.4333 -169.8000 270° West 460 529 36,000  Level Anchorage Center
03:36PM 64.4167 -170.1000 263° West 460 529 36,000  Level Anchorage Center
03:37PM 64.4167 -170.3833 270° West 450 518 36,000  Level Anchorage Center
03:38PM 64.4000 -170.6833 263° West 460 529 36,000  Level Anchorage Center
03:39PM 64.4000 -170.9833 270° West 460 529 36,000  Level Anchorage Center
03:40PM 64.3833 -171.2667 262° West 460 529 36,000  Level Anchorage Center
03:41PM 64.3667 -171.5667 263° West 460 529 36,000  Level Anchorage Center
03:43PM 64.3679 -172.0586 271° West  Level FlightAware Approximate
03:50PM 64.3674 -174.2097 271° West  Level FlightAware Approximate
03:51PM 64.3731 -174.5157 280° West  Level FlightAware Approximate
03:52PM 64.3962 -174.8185 280° West  Level FlightAware Approximate
03:53PM 64.4187 -175.1218 280° West  Level FlightAware Approximate
03:53PM 64.4350 -175.2640 280° West 36,000  Level FlightAware
03:54PM 64.4470 -175.4440 279° West 479 551 36,000  Level FlightAware
03:54PM 64.4620 -175.6630 279° West 479 551 36,000  Level FlightAware
03:55PM 64.4730 -175.8410 278° West 480 552 36,000  Level FlightAware
03:56PM 64.4860 -176.0420 279° West 480 552 36,000  Level FlightAware
03:56PM 64.5000 -176.2690 278° West 478 550 36,000  Level FlightAware
03:57PM 64.5070 -176.3990 277° West 478 550 36,000  Level FlightAware
03:58PM 64.5210 -176.6210 278° West 477 549 36,000  Level FlightAware
03:58PM 64.5320 -176.8140 278° West 475 547 36,000  Level FlightAware
03:59PM 64.5450 -177.0400 278° West 473 544 36,000  Level FlightAware
04:00PM 64.5560 -177.2580 277° West 472 543 36,000  Level FlightAware
04:00PM 64.5670 -177.4580 277° West 472 543 36,000  Level FlightAware
04:01PM 64.5760 -177.6340 277° West 471 542 36,000  Level FlightAware
04:02PM 64.5870 -177.8500 277° West 470 541 36,000  Level FlightAware
04:02PM 64.5960 -178.0340 277° West 468 539 36,000  Level FlightAware
04:03PM 64.6060 -178.2540 276° West 465 535 36,000  Level FlightAware
04:04PM 64.6170 -178.4710 277° West 464 534 36,000  Level FlightAware
04:04PM 64.6260 -178.6750 276° West 465 535 36,000  Level FlightAware
04:05PM 64.6350 -178.8900 276° West 465 535 36,000  Level FlightAware
04:06PM 64.6420 -179.0560 276° West 465 535 36,000  Level FlightAware
04:06PM 64.6510 -179.2840 275° West 464 534 36,000  Level FlightAware
04:07PM 64.6590 -179.4910 275° West 462 532 36,000  Level FlightAware
04:08PM 64.6650 -179.6460 275° West 463 533 36,000  Level FlightAware
04:08PM 64.6730 -179.8540 275° West 463 533 36,000  Level FlightAware
04:09PM 64.6830 179.8540 275° West 463 533 36,000  Level FlightAware
04:10PM 64.6890 179.6580 274° West 462 532 36,000  Level FlightAware
04:11PM 64.6990 179.3060 274° West 465 535 36,000  Level FlightAware
04:12PM 64.7050 179.1070 274° West 462 532 36,000  Level FlightAware
04:13PM 64.7110 178.8550 273° West 462 532 36,000  Level FlightAware
04:14PM 64.7150 178.6510 273° West 462 532 36,000  Level FlightAware
04:14PM 64.7220 178.3800 274° West 468 539 36,000  Level FlightAware
04:15PM 64.7270 178.1600 273° West 468 539 36,000  Level FlightAware
04:16PM 64.7290 178.0190 272° West 468 539 36,000  Level FlightAware
04:16PM 64.7350 177.7440 273° West 470 541 36,000  Level FlightAware
04:17PM 64.7380 177.5620 272° West 472 543 36,000  Level FlightAware
04:18PM 64.7400 177.3640 271° West 476 548 36,000  Level FlightAware
04:18PM 64.7430 177.1410 272° West 478 550 36,000  Level FlightAware
04:19PM 64.7440 176.9300 271° West 478 550 36,000  Level FlightAware
04:20PM 64.7480 176.6660 272° West 483 556 36,000  Level FlightAware
04:21PM 64.7490 176.4970 271° West 483 556 36,000  Level FlightAware
04:21PM 64.7510 176.1560 271° West 485 558 36,000  Level FlightAware
04:22PM 64.7520 175.9090 271° West 487 560 36,000  Level FlightAware
04:23PM 64.7520 175.7000 270° West 486 559 36,000  Level FlightAware
04:24PM 64.7520 175.4870 270° West 483 556 36,000  Level FlightAware
04:24PM 64.7520 175.2320 270° West 486 559 36,000  Level FlightAware
04:25PM 64.7520 175.0320 270° West 488 562 36,000  Level FlightAware
04:26PM 64.7510 174.8200 269° West 487 560 36,000  Level FlightAware
04:26PM 64.7500 174.5910 270° West 486 559 36,000  Level FlightAware
04:27PM 64.7480 174.3650 269° West 485 558 36,000  Level FlightAware
04:28PM 64.7470 174.1560 269° West 487 560 36,000  Level FlightAware
04:28PM 64.7450 173.9590 269° West 487 560 36,000  Level FlightAware
04:29PM 64.7420 173.7340 268° West 487 560 36,000  Level FlightAware
04:30PM 64.7400 173.5250 269° West 487 560 36,000  Level FlightAware
04:30PM 64.7370 173.3180 268° West 489 563 36,000  Level FlightAware
04:31PM 64.7330 173.0760 268° West 490 564 36,000  Level FlightAware
04:32PM 64.7290 172.8590 268° West 491 565 36,000  Level FlightAware
04:33PM 64.7210 172.6370 265° West 487 560 36,000  Level FlightAware
04:33PM 64.6930 172.4380 252° West 480 552 36,000  Level FlightAware
04:34PM 64.6620 172.2640 247° West 479 551 36,000  Level FlightAware
04:34PM 64.6330 172.1030 247° West 479 551 36,000  Level FlightAware
04:35PM 64.5930 171.8910 246° West 479 551 36,000  Level FlightAware
04:36PM 64.5560 171.6890 247° West 480 552 36,000  Level FlightAware
04:37PM 64.5200 171.4930 247° West 480 552 36,000  Level FlightAware
04:37PM 64.4840 171.3080 246° West 480 552 36,000  Level FlightAware
04:38PM 64.4570 171.1680 246° West 480 552 36,000  Level FlightAware
04:39PM 64.4200 170.9760 246° West 480 552 36,000  Level FlightAware
04:39PM 64.3930 170.8320 247° West 480 552 36,000  Level FlightAware
04:40PM 64.3470 170.5930 246° West 480 552 36,000  Level FlightAware
04:41PM 64.3180 170.4460 246° West 480 552 36,000  Level FlightAware
04:42PM 64.2900 170.3030 246° West 480 552 36,000  Level FlightAware
04:42PM 64.2540 170.1120 247° West 480 552 36,000  Level FlightAware
04:43PM 64.2250 169.9650 246° West 480 552 36,000  Level FlightAware
04:44PM 64.1970 169.8190 246° West 480 552 36,000  Level FlightAware
04:44PM 64.1600 169.6290 246° West 480 552 36,000  Level FlightAware
04:45PM 64.1320 169.4860 246° West 480 552 36,000  Level FlightAware
04:46PM 64.0950 169.2930 246° West 480 552 36,000  Level FlightAware
04:46PM 64.0670 169.1510 246° West 480 552 36,000  Level FlightAware
04:49PM 63.9273 168.5982 244° Southwest  Level FlightAware Approximate
04:50PM 63.8685 168.3272 244° Southwest  Level FlightAware Approximate
04:51PM 63.8092 168.0574 244° Southwest  Level FlightAware Approximate
04:52PM 63.7494 167.7887 243° Southwest  Level FlightAware Approximate
04:53PM 63.6890 167.5211 243° Southwest  Level FlightAware Approximate
04:54PM 63.6282 167.2547 243° Southwest  Level FlightAware Approximate
04:55PM 63.5669 166.9894 243° Southwest  Level FlightAware Approximate
04:56PM 63.5051 166.7253 242° Southwest  Level FlightAware Approximate
04:57PM 63.4429 166.4623 242° Southwest  Level FlightAware Approximate
04:58PM 63.3801 166.2004 242° Southwest  Level FlightAware Approximate
04:59PM 63.3169 165.9397 242° Southwest  Level FlightAware Approximate
05:00PM 63.2532 165.6802 241° Southwest  Level FlightAware Approximate
05:01PM 63.1888 165.4220 241° Southwest  Level FlightAware Approximate
05:02PM 63.1240 165.1650 241° Southwest  Level FlightAware Approximate
05:03PM 63.0586 164.9091 241° Southwest  Level FlightAware Approximate
05:04PM 62.9928 164.6545 240° Southwest  Level FlightAware Approximate
05:05PM 62.9266 164.4009 240° Southwest  Level FlightAware Approximate
05:06PM 62.8598 164.1487 240° Southwest  Level FlightAware Approximate
05:07PM 62.7924 163.8977 240° Southwest  Level FlightAware Approximate
05:08PM 62.7247 163.6479 239° Southwest  Level FlightAware Approximate
05:09PM 62.6564 163.3992 239° Southwest  Level FlightAware Approximate
05:10PM 62.5878 163.1517 239° Southwest  Level FlightAware Approximate
05:11PM 62.5193 162.9044 239° Southwest  Level FlightAware Approximate
05:12PM 62.4511 162.6574 239° Southwest  Level FlightAware Approximate
05:13PM 62.3825 162.4115 239° Southwest  Level FlightAware Approximate
05:14PM 62.3135 162.1667 239° Southwest  Level FlightAware Approximate
05:15PM 62.2440 161.9230 239° Southwest  Level FlightAware Approximate
05:16PM 62.1741 161.6804 238° Southwest  Level FlightAware Approximate
05:17PM 62.1038 161.4390 238° Southwest  Level FlightAware Approximate
05:18PM 62.0331 161.1987 238° Southwest  Level FlightAware Approximate
05:19PM 61.9619 160.9595 238° Southwest  Level FlightAware Approximate
05:20PM 61.8904 160.7214 238° Southwest  Level FlightAware Approximate
05:21PM 61.8153 160.4895 229° Southwest  Level FlightAware Approximate
05:22PM 61.7277 160.2780 229° Southwest  Level FlightAware Approximate
05:23PM 61.6399 160.0677 229° Southwest  Level FlightAware Approximate
05:24PM 61.5517 159.8586 229° Southwest  Level FlightAware Approximate
05:25PM 61.4631 159.6506 228° Southwest  Level FlightAware Approximate
05:26PM 61.3743 159.4439 228° Southwest  Level FlightAware Approximate
05:27PM 61.2852 159.2383 228° Southwest  Level FlightAware Approximate
05:28PM 61.1957 159.0339 228° Southwest  Level FlightAware Approximate
05:29PM 61.1060 158.8307 228° Southwest  Level FlightAware Approximate
05:30PM 61.0159 158.6286 227° Southwest  Level FlightAware Approximate
05:31PM 60.9255 158.4276 227° Southwest  Level FlightAware Approximate
05:32PM 60.8349 158.2278 227° Southwest  Level FlightAware Approximate
05:33PM 60.7439 158.0291 227° Southwest  Level FlightAware Approximate
05:34PM 60.6527 157.8316 227° Southwest  Level FlightAware Approximate
05:35PM 60.5612 157.6352 227° Southwest  Level FlightAware Approximate
05:36PM 60.4693 157.4398 226° Southwest  Level FlightAware Approximate
05:37PM 60.3772 157.2456 226° Southwest  Level FlightAware Approximate
05:38PM 60.2849 157.0525 226° Southwest  Level FlightAware Approximate
05:39PM 60.1922 156.8605 226° Southwest  Level FlightAware Approximate
05:40PM 60.0993 156.6695 226° Southwest  Level FlightAware Approximate
05:41PM 60.0060 156.4796 226° Southwest  Level FlightAware Approximate
05:42PM 59.9126 156.2908 225° Southwest  Level FlightAware Approximate
05:43PM 59.8188 156.1031 225° Southwest  Level FlightAware Approximate
05:44PM 59.7248 155.9163 225° Southwest  Level FlightAware Approximate
05:45PM 59.6309 155.7299 225° Southwest  Level FlightAware Approximate
05:46PM 59.5367 155.5446 225° Southwest  Level FlightAware Approximate
05:47PM 59.4423 155.3603 225° Southwest  Level FlightAware Approximate
05:48PM 59.3476 155.1770 225° Southwest  Level FlightAware Approximate
05:49PM 59.2527 154.9947 225° Southwest  Level FlightAware Approximate
05:50PM 59.1575 154.8135 224° Southwest  Level FlightAware Approximate
05:51PM 59.0620 154.6332 224° Southwest  Level FlightAware Approximate
05:52PM 58.9663 154.4540 224° Southwest  Level FlightAware Approximate
05:53PM 58.8704 154.2757 224° Southwest  Level FlightAware Approximate
05:54PM 58.7742 154.0984 224° Southwest  Level FlightAware Approximate
05:55PM 58.6778 153.9221 224° Southwest  Level FlightAware Approximate
05:56PM 58.5811 153.7468 223° Southwest  Level FlightAware Approximate
05:57PM 58.4842 153.5725 223° Southwest  Level FlightAware Approximate
05:58PM 58.3871 153.3991 223° Southwest  Level FlightAware Approximate
05:59PM 58.2897 153.2266 223° Southwest  Level FlightAware Approximate
06:00PM 58.1922 153.0549 223° Southwest  Level FlightAware Approximate
06:01PM 58.0945 152.8842 223° Southwest  Level FlightAware Approximate
06:02PM 57.9965 152.7145 223° Southwest  Level FlightAware Approximate
06:03PM 57.8983 152.5456 222° Southwest  Level FlightAware Approximate
06:04PM 57.7999 152.3777 222° Southwest  Level FlightAware Approximate
06:05PM 57.7012 152.2107 222° Southwest  Level FlightAware Approximate
06:06PM 57.6023 152.0446 222° Southwest  Level FlightAware Approximate
06:07PM 57.5033 151.8794 222° Southwest  Level FlightAware Approximate
06:08PM 57.4040 151.7151 222° Southwest  Level FlightAware Approximate
06:09PM 57.3045 151.5516 222° Southwest  Level FlightAware Approximate
06:10PM 57.2047 151.3891 221° Southwest  Level FlightAware Approximate
06:11PM 57.1048 151.2274 221° Southwest  Level FlightAware Approximate
06:12PM 57.0047 151.0667 221° Southwest  Level FlightAware Approximate
06:13PM 56.9043 150.9067 221° Southwest  Level FlightAware Approximate
06:14PM 56.8038 150.7477 221° Southwest  Level FlightAware Approximate
06:15PM 56.7030 150.5894 221° Southwest  Level FlightAware Approximate
06:16PM 56.6021 150.4321 221° Southwest  Level FlightAware Approximate
06:17PM 56.5010 150.2755 221° Southwest  Level FlightAware Approximate
06:18PM 56.3996 150.1199 220° Southwest  Level FlightAware Approximate
06:19PM 56.2981 149.9650 220° Southwest  Level FlightAware Approximate
06:20PM 56.1964 149.8109 220° Southwest  Level FlightAware Approximate
06:21PM 56.0945 149.6577 220° Southwest  Level FlightAware Approximate
06:22PM 55.9915 149.5076 211° Southwest  Level FlightAware Approximate
06:23PM 55.8773 149.3860 211° Southwest  Level FlightAware Approximate
06:24PM 55.7630 149.2653 211° Southwest  Level FlightAware Approximate
06:25PM 55.6485 149.1452 211° Southwest  Level FlightAware Approximate
06:26PM 55.5340 149.0258 211° Southwest  Level FlightAware Approximate
06:27PM 55.4193 148.9071 210° Southwest  Level FlightAware Approximate
06:28PM 55.3045 148.7891 210° Southwest  Level FlightAware Approximate
06:29PM 55.1895 148.6721 210° Southwest  Level FlightAware Approximate
06:30PM 55.0743 148.5562 210° Southwest  Level FlightAware Approximate
06:31PM 54.9589 148.4409 210° Southwest  Level FlightAware Approximate
06:32PM 54.8435 148.3263 210° Southwest  Level FlightAware Approximate
06:33PM 54.7277 148.2130 209° Southwest  Level FlightAware Approximate
06:34PM 54.6117 148.1007 209° Southwest  Level FlightAware Approximate
06:35PM 54.4956 147.9890 209° Southwest  Level FlightAware Approximate
06:36PM 54.3794 147.8780 209° Southwest  Level FlightAware Approximate
06:37PM 54.2635 147.7664 209° Southwest  Level FlightAware Approximate
06:38PM 54.1476 147.6551 209° Southwest  Level FlightAware Approximate
06:39PM 54.0316 147.5444 209° Southwest  Level FlightAware Approximate
06:40PM 53.9154 147.4343 209° Southwest  Level FlightAware Approximate
06:41PM 53.7992 147.3248 209° Southwest  Level FlightAware Approximate
06:42PM 53.6829 147.2160 209° Southwest  Level FlightAware Approximate
06:43PM 53.5665 147.1077 209° Southwest  Level FlightAware Approximate
06:44PM 53.4500 147.0000 209° Southwest  Level FlightAware Approximate
06:45PM 53.3197 146.9560 191° South  Level FlightAware Approximate
06:46PM 53.1894 146.9123 191° South  Level FlightAware Approximate
06:47PM 53.0590 146.8689 191° South  Level FlightAware Approximate
06:48PM 52.9286 146.8257 191° South  Level FlightAware Approximate
06:49PM 52.7982 146.7828 190° South  Level FlightAware Approximate
06:50PM 52.6674 146.7433 190° South  Level FlightAware Approximate
06:51PM 52.5367 146.7039 190° South  Level FlightAware Approximate
06:52PM 52.4059 146.6649 190° South  Level FlightAware Approximate
06:53PM 52.2751 146.6260 190° South  Level FlightAware Approximate
06:54PM 52.1442 146.5874 190° South  Level FlightAware Approximate
06:55PM 52.0134 146.5490 191° South  Level FlightAware Approximate
06:56PM 51.8828 146.5087 191° South  Level FlightAware Approximate
06:57PM 51.7522 146.4686 191° South  Level FlightAware Approximate
06:58PM 51.6216 146.4287 191° South  Level FlightAware Approximate
06:59PM 51.4910 146.3891 191° South  Level FlightAware Approximate
07:00PM 51.3603 146.3501 190° South  Level FlightAware Approximate
07:01PM 51.2295 146.3117 190° South  Level FlightAware Approximate
07:02PM 51.0987 146.2736 190° South  Level FlightAware Approximate
07:03PM 50.9680 146.2357 190° South  Level FlightAware Approximate
07:04PM 50.8372 146.1980 190° South  Level FlightAware Approximate
07:05PM 50.7063 146.1605 190° South  Level FlightAware Approximate
07:06PM 50.5755 146.1232 190° South  Level FlightAware Approximate
07:07PM 50.4447 146.0861 190° South  Level FlightAware Approximate
07:08PM 50.3139 146.0492 190° South  Level FlightAware Approximate
07:09PM 50.1830 146.0126 190° South  Level FlightAware Approximate
07:10PM 50.0521 145.9761 190° South  Level FlightAware Approximate
07:11PM 49.9212 145.9398 190° South  Level FlightAware Approximate
07:12PM 49.7904 145.9037 190° South  Level FlightAware Approximate
07:13PM 49.6595 145.8678 190° South  Level FlightAware Approximate
07:14PM 49.5285 145.8322 190° South  Level FlightAware Approximate
07:15PM 49.3976 145.7967 190° South  Level FlightAware Approximate
07:16PM 49.2667 145.7614 190° South  Level FlightAware Approximate
07:17PM 49.1358 145.7262 190° South  Level FlightAware Approximate
07:18PM 49.0047 145.6916 190° South  Level FlightAware Approximate
07:19PM 48.8737 145.6574 190° South  Level FlightAware Approximate
07:20PM 48.7427 145.6233 190° South  Level FlightAware Approximate
07:21PM 48.6116 145.5894 190° South  Level FlightAware Approximate
07:22PM 48.4806 145.5556 190° South  Level FlightAware Approximate
07:23PM 48.3495 145.5221 190° South  Level FlightAware Approximate
07:24PM 48.2185 145.4887 190° South  Level FlightAware Approximate
07:25PM 48.0874 145.4555 190° South  Level FlightAware Approximate
07:26PM 47.9563 145.4224 190° South  Level FlightAware Approximate
07:27PM 47.8252 145.3898 189° South  Level FlightAware Approximate
07:28PM 47.6940 145.3575 189° South  Level FlightAware Approximate
07:29PM 47.5629 145.3253 189° South  Level FlightAware Approximate
07:30PM 47.4317 145.2933 189° South  Level FlightAware Approximate
07:31PM 47.3005 145.2614 189° South  Level FlightAware Approximate
07:32PM 47.1693 145.2297 189° South  Level FlightAware Approximate
07:33PM 47.0381 145.1981 189° South  Level FlightAware Approximate
07:34PM 46.9069 145.1667 189° South  Level FlightAware Approximate
07:35PM 46.7757 145.1355 189° South  Level FlightAware Approximate
07:36PM 46.6632 145.0343 213° Southwest  Level FlightAware Approximate
07:36PM 45.9900 144.3980 213° Southwest 444 511 36,000  Level FlightAware
07:36PM 45.9140 144.3300 212° Southwest 444 511 36,000  Level FlightAware
07:37PM 46.5519 144.9284 213° Southwest  Level FlightAware Approximate
07:38PM 45.7710 144.1970 213° Southwest 443 510 36,000  Level FlightAware
07:38PM 45.7030 144.1350 212° Southwest 443 510 36,000  Level FlightAware
07:39PM 45.6350 144.0730 213° Southwest 442 509 36,000  Level FlightAware
07:40PM 45.5480 143.9930 213° Southwest 443 510 36,000  Level FlightAware
07:41PM 45.4650 143.9180 212° Southwest 438 504 36,000  Level FlightAware
07:41PM 45.3760 143.8390 212° Southwest 437 503 36,000  Level FlightAware
07:42PM 45.2990 143.7690 213° Southwest 438 504 36,000  Level FlightAware
07:43PM 45.2300 143.7070 212° Southwest 436 502 36,000  Level FlightAware
07:44PM 45.1510 143.6380 212° Southwest 444 511 36,000  Level FlightAware
07:44PM 45.0820 143.5830 209° Southwest 445 512 36,000  Level FlightAware
07:45PM 44.9980 143.5150 210° Southwest 444 511 36,000  Level FlightAware
07:46PM 44.9250 143.4560 210° Southwest 444 511 36,000  Level FlightAware
07:46PM 44.8420 143.4030 204° Southwest 446 513 36,000  Level FlightAware
07:47PM 44.7690 143.3750 195° South 449 517 36,000  Level FlightAware
07:48PM 44.6760 143.3430 194° South 449 517 36,000  Level FlightAware
07:48PM 44.6010 143.3170 194° South 449 517 36,000  Level FlightAware
07:49PM 44.4990 143.2800 195° South 450 518 36,000  Level FlightAware
07:50PM 44.4170 143.2510 194° South 450 518 36,000  Level FlightAware
07:51PM 44.3330 143.2210 194° South 451 519 36,000  Level FlightAware
07:51PM 44.2430 143.1890 194° South 452 520 36,000  Level FlightAware
07:52PM 44.1690 143.1640 194° South 460 529 36,000  Level FlightAware
07:53PM 44.0650 143.1270 194° South 448 516 36,000  Level FlightAware
07:53PM 43.9980 143.1030 194° South 450 518 36,000  Level FlightAware
07:54PM 43.9030 143.0700 194° South 449 517 36,000  Level FlightAware
07:55PM 43.8130 143.0390 194° South 448 516 36,000  Level FlightAware
07:56PM 43.7020 143.0010 194° South 448 516 36,000  Level FlightAware
07:56PM 43.6110 142.9690 194° South 450 518 36,000  Level FlightAware
07:57PM 43.5280 142.9410 194° South 449 517 36,000  Level FlightAware
07:58PM 43.4360 142.9090 194° South 449 517 36,000  Level FlightAware
07:58PM 43.3630 142.8840 194° South 449 517 36,000  Level FlightAware
07:59PM 43.2820 142.8550 195° South 448 516 36,000  Level FlightAware
08:00PM 43.1880 142.8230 194° South 449 517 36,000  Level FlightAware
08:00PM 43.1160 142.7980 194° South 449 517 36,000  Level FlightAware
08:01PM 43.0420 142.7730 194° South 450 518 36,000  Level FlightAware
08:02PM 42.9480 142.7410 194° South 451 519 36,000  Level FlightAware
08:03PM 42.8660 142.7140 194° South 451 519 36,000  Level FlightAware
08:03PM 42.7720 142.6820 194° South 449 517 36,000  Level FlightAware
08:04PM 42.6910 142.6540 194° South 450 518 36,000  Level FlightAware
08:05PM 42.5970 142.6220 194° South 450 518 36,000  Level FlightAware
08:05PM 42.5160 142.5950 194° South 451 519 36,000  Level FlightAware
08:06PM 42.4320 142.5670 194° South 460 529 36,000  Level FlightAware
08:07PM 42.3500 142.5400 194° South 463 533 36,000  Level FlightAware
08:07PM 42.2570 142.5090 194° South 462 532 36,000  Level FlightAware
08:08PM 42.1730 142.4810 194° South 462 532 36,000  Level FlightAware
08:09PM 42.0800 142.4500 194° South 463 533 36,000  Level FlightAware
08:10PM 41.9960 142.4220 194° South 463 533 36,000  Level FlightAware
08:10PM 41.9030 142.3910 194° South 465 535 36,000  Level FlightAware
08:11PM 41.8060 142.3600 193° South 466 536 36,000  Level FlightAware
08:12PM 41.7250 142.3330 194° South 467 537 36,000  Level FlightAware
08:12PM 41.6540 142.3100 194° South 467 537 36,000  Level FlightAware
08:13PM 41.5620 142.2800 194° South 465 535 36,000  Level FlightAware
08:14PM 41.4780 142.2530 194° South 466 536 36,000  Level FlightAware
08:14PM 41.3850 142.2230 194° South 465 535 36,000  Level FlightAware
08:15PM 41.3000 142.1950 194° South 460 529 36,000  Level FlightAware
08:16PM 41.2040 142.1640 194° South 460 529 36,000  Level FlightAware
08:17PM 41.1160 142.1360 193° South 462 532 36,000  Level FlightAware
08:17PM 41.0530 142.1160 193° South 462 532 36,000  Level FlightAware
08:18PM 40.9550 142.0840 194° South 461 531 36,000  Level FlightAware
08:18PM 40.8670 142.0560 194° South 460 529 36,000  Level FlightAware
08:19PM 40.7880 142.0310 193° South 461 531 36,000  Level FlightAware
08:20PM 40.7000 142.0030 194° South 463 533 36,000  Level FlightAware
08:21PM 40.6100 141.9750 193° South 465 535 36,000  Level FlightAware
08:21PM 40.5210 141.9470 193° South 466 536 36,000  Level FlightAware
08:22PM 40.4310 141.9190 193° South 477 549 36,000  Level FlightAware
08:23PM 40.3510 141.8940 193° South 476 548 36,000  Level FlightAware
08:23PM 40.2500 141.8620 194° South 476 548 36,000  Level FlightAware
08:24PM 40.1760 141.8390 193° South 476 548 36,000  Level FlightAware
08:25PM 40.0870 141.8110 194° South 479 551 36,000  Level FlightAware
08:25PM 40.0020 141.7850 193° South 477 549 36,000  Level FlightAware
08:26PM 39.8850 141.7480 194° South 475 547 36,000  Level FlightAware
08:27PM 39.8020 141.7230 193° South 476 548 36,000  Level FlightAware
08:27PM 39.7170 141.6970 193° South 480 552 36,000  Level FlightAware
08:28PM 39.6240 141.6680 194° South 482 555 36,000  Level FlightAware
08:29PM 39.5350 141.6410 193° South 480 552 36,000  Level FlightAware
08:30PM 39.4330 141.6100 193° South 482 555 36,000  Level FlightAware
08:30PM 39.3480 141.5840 193° South 482 555 36,000  Level FlightAware
08:31PM 39.2740 141.5620 193° South 483 556 36,000  Level FlightAware
08:32PM 39.1730 141.5310 193° South 492 566 36,000  Level FlightAware
08:32PM 39.0770 141.5020 193° South 495 570 36,000  Level FlightAware
08:33PM 39.0010 141.4790 193° South 495 570 36,000  Level FlightAware
08:34PM 38.9200 141.4550 193° South 495 570 36,000  Level FlightAware
08:34PM 38.8240 141.4260 193° South 496 571 36,000  Level FlightAware
08:35PM 38.7370 141.4000 193° South 496 571 36,000  Level FlightAware
08:36PM 38.6250 141.3670 193° South 496 571 36,000  Level FlightAware
08:36PM 38.5250 141.3370 193° South 495 570 36,000  Level FlightAware
08:37PM 38.4350 141.3100 193° South 493 567 36,000  Level FlightAware
08:38PM 38.3470 141.2840 193° South 493 567 36,000  Level FlightAware
08:38PM 38.2580 141.2580 193° South 479 551 36,000  Level FlightAware
08:39PM 38.1600 141.2290 193° South 479 551 36,000  Level FlightAware
08:40PM 38.0750 141.2040 193° South 475 547 36,000  Level FlightAware
08:41PM 37.9780 141.1760 193° South 464 534 36,000  Level FlightAware
08:41PM 37.8940 141.1470 195° South 458 527 36,000 -900 Level FlightAware
08:42PM 37.8030 141.1110 197° South 453 521 34,800 -1,440 Descending FlightAware
08:43PM 37.7210 141.0790 197° South 456 525 34,000 -600 Descending FlightAware
08:43PM 37.6310 141.0430 198° South 455 524 34,000  Level FlightAware
08:44PM 37.5500 141.0110 197° South 458 527 34,000 -720 Level FlightAware
08:45PM 37.4580 140.9750 197° South 456 525 33,000 -1,560 Descending FlightAware
08:45PM 37.3790 140.9440 197° South 440 506 31,800 -1,920 Descending FlightAware
08:46PM 37.3010 140.9140 197° South 441 507 30,500 -1,920 Descending FlightAware
08:47PM 37.2230 140.8830 198° South 434 499 29,300 -1,860 Descending FlightAware
08:48PM 37.1370 140.8500 197° South 420 483 27,900 -1,860 Descending FlightAware
08:48PM 37.0610 140.8210 197° South 421 484 26,700 -1,740 Descending FlightAware
08:49PM 36.9870 140.7920 197° South 407 468 25,600 -1,740 Descending FlightAware
08:50PM 36.9150 140.7650 197° South 407 468 24,400 -1,740 Descending FlightAware
08:50PM 36.8390 140.7440 192° South 404 465 23,300 -1,680 Descending FlightAware
08:51PM 36.7660 140.7380 184° South 401 461 22,200 -1,680 Descending FlightAware
08:52PM 36.6830 140.7320 183° South 387 445 21,000 -1,680 Descending FlightAware
08:52PM 36.6120 140.7270 183° South 388 447 19,900 -1,680 Descending FlightAware
08:53PM 36.5300 140.7200 184° South 374 430 18,700 -1,620 Descending FlightAware
08:54PM 36.4680 140.7150 184° South 367 422 17,800 -1,500 Descending FlightAware
08:54PM 36.4100 140.7110 183° South 370 426 17,000 -1,620 Descending FlightAware
08:55PM 36.3230 140.7040 184° South 364 419 15,600 -1,620 Descending FlightAware
08:56PM 36.2550 140.6990 183° South 358 412 14,600 -1,500 Descending FlightAware
08:56PM 36.1830 140.6940 183° South 353 406 13,500 -1,440 Descending FlightAware
08:57PM 36.1170 140.6940 180° South 349 402 12,600 -1,200 Descending FlightAware
08:58PM 36.0490 140.6930 181° South 318 366 11,900 -900 Descending FlightAware
08:58PM 36.0080 140.6930 180° South 309 356 11,500 -1,380 Descending FlightAware
08:59PM 35.9410 140.6940 179° South 308 354 10,200 -1,560 Descending FlightAware
09:00PM 35.9010 140.6950 179° South 296 341 9,700 -1,320 Descending FlightAware
09:00PM 35.8640 140.6960 179° South 283 326 9,000 -1,920 Descending FlightAware
09:00PM 35.8470 140.6960 180° South 283 326 8,400 -2,760 Descending FlightAware
09:01PM 35.8160 140.6960 180° South 283 326 7,300 -2,640 Descending FlightAware
09:01PM 35.7800 140.6960 180° South 277 319 6,200 -1,920 Descending FlightAware
09:02PM 35.7330 140.6960 180° South 286 329 5,200 -1,560 Descending FlightAware
09:02PM 35.6980 140.6910 187° South 284 327 4,600 -1,080 Descending FlightAware
09:03PM 35.6640 140.6760 200° South 275 316 4,100 -480 Descending FlightAware
09:03PM 35.6160 140.6540 200° South 260 299 4,100  Level FlightAware
09:04PM 35.5810 140.6280 211° Southwest 250 288 4,100  Level FlightAware
09:04PM 35.5590 140.5960 230° Southwest 226 260 4,100  Level FlightAware
09:05PM 35.5480 140.5670 245° Southwest 188 216 4,100  Level FlightAware
09:05PM 35.5500 140.5550 282° West 183 211 4,100  Level FlightAware
09:05PM 35.5560 140.5400 296° West 181 208 4,100 -180 Level FlightAware
09:06PM 35.5670 140.5190 303° West 181 208 4,000 -420 Descending FlightAware
09:06PM 35.5730 140.5140 326° Northwest 183 211 3,900 -900 Descending FlightAware
09:06PM 35.5920 140.5000 329° Northwest 172 198 3,500 -900 Descending FlightAware
09:07PM 35.6090 140.4880 330° Northwest 160 184 3,100 -900 Descending FlightAware
09:07PM 35.6290 140.4730 329° Northwest 162 186 2,700 -840 Descending FlightAware
09:08PM 35.6470 140.4600 330° Northwest 162 186 2,300 -960 Descending FlightAware
09:08PM 35.6630 140.4490 331° Northwest 162 186 1,900 -840 Descending FlightAware
09:09PM 35.6810 140.4360 330° Northwest 163 188 1,600 -780 Descending FlightAware
09:09PM 35.6990 140.4230 330° Northwest 163 188 1,200 -900 Descending FlightAware
09:10PM 35.7160 140.4100 328° Northwest 154 177 800 -900 Descending FlightAware
09:10PM 35.7350 140.3970 331° Northwest 154 177 400 -480 Descending FlightAware
09:11PM 35.7560 140.3820 330° Northwest 153 176 300 -180 Descending FlightAware
09:13PM 35.7500 140.3833 253° West  Level FlightAware Approximate
09:14PM 35.7647 140.3864 253° West  Level Estimated
09:15PM 35.7647 140.3864 253° West  Level Estimated
09:16PM 35.7647 140.3864 253° West  Level Estimated
09:17PM 35.7647 140.3864 253° West  Level Estimated
09:18PM 35.7647 140.3864 253° West  Level Estimated
09:19PM 35.7647 140.3864 253° West  Level Estimated
09:20PM 35.7647 140.3864 253° West  Level Estimated
09:21PM 35.7647 140.3864 253° West  Level Estimated
09:22PM 35.7647 140.3864 253° West  Level Estimated
09:23PM 35.7647 140.3864 253° West  Level Estimated
09:24PM 35.7647 140.3864 253° West  Level Estimated
09:25PM 35.7647 140.3864 253° West  Level Estimated
09:26PM 35.7647 140.3864 253° West  Level Estimated
09:27PM 35.7647 140.3864 253° West  Level Estimated
09:28PM 35.7647 140.3864 253° West  Level Estimated
09:29PM 35.7647 140.3864 253° West  Level Estimated
09:30PM 35.7647 140.3864 253° West  Level Estimated
09:31PM 35.7647 140.3864 253° West  Level Estimated